sensor_id;sensor_type;location;lat;lon;timestamp;temperature;humidity
27900;DHT22;15243;50.726;7.080;2022-09-13T00:00:57;16.00;99.90
27900;DHT22;15243;50.726;7.080;2022-09-13T00:03:26;16.00;99.90
27900;DHT22;15243;50.726;7.080;2022-09-13T00:05:53;15.90;99.90
27900;DHT22;15243;50.726;7.080;2022-09-13T00:08:19;15.90;99.90
27900;DHT22;15243;50.726;7.080;2022-09-13T00:10:47;15.90;99.90
27900;DHT22;15243;50.726;7.080;2022-09-13T00:13:15;15.80;99.90
27900;DHT22;15243;50.726;7.080;2022-09-13T00:15:47;15.80;99.90
27900;DHT22;15243;50.726;7.080;2022-09-13T00:18:16;15.80;99.90
27900;DHT22;15243;50.726;7.080;2022-09-13T00:20:43;15.80;99.90
27900;DHT22;15243;50.726;7.080;2022-09-13T00:23:11;15.80;99.90
27900;DHT22;15243;50.726;7.080;2022-09-13T00:25:38;15.80;99.90
27900;DHT22;15243;50.726;7.080;2022-09-13T00:28:06;15.80;99.90
27900;DHT22;15243;50.726;7.080;2022-09-13T00:30:33;15.90;99.90
27900;DHT22;15243;50.726;7.080;2022-09-13T00:33:00;15.80;99.90
27900;DHT22;15243;50.726;7.080;2022-09-13T00:35:30;15.80;99.90
27900;DHT22;15243;50.726;7.080;2022-09-13T00:38:00;15.70;99.90
27900;DHT22;15243;50.726;7.080;2022-09-13T00:40:27;15.80;99.90
27900;DHT22;15243;50.726;7.080;2022-09-13T00:42:56;15.80;99.90
27900;DHT22;15243;50.726;7.080;2022-09-13T00:45:23;15.80;99.90
27900;DHT22;15243;50.726;7.080;2022-09-13T00:47:51;15.90;99.90
27900;DHT22;15243;50.726;7.080;2022-09-13T00:50:29;15.90;99.90
27900;DHT22;15243;50.726;7.080;2022-09-13T00:53:01;15.90;99.90
27900;DHT22;15243;50.726;7.080;2022-09-13T00:55:47;15.90;99.90
27900;DHT22;15243;50.726;7.080;2022-09-13T00:58:28;15.90;99.90
27900;DHT22;15243;50.726;7.080;2022-09-13T01:00:57;15.80;99.90
27900;DHT22;15243;50.726;7.080;2022-09-13T01:03:27;15.80;99.90
27900;DHT22;15243;50.726;7.080;2022-09-13T01:06:10;15.80;99.90
27900;DHT22;15243;50.726;7.080;2022-09-13T01:08:39;15.60;99.90
27900;DHT22;15243;50.726;7.080;2022-09-13T01:11:12;15.60;99.90
27900;DHT22;15243;50.726;7.080;2022-09-13T01:13:43;15.60;99.90
27900;DHT22;15243;50.726;7.080;2022-09-13T01:16:10;15.60;99.90
27900;DHT22;15243;50.726;7.080;2022-09-13T01:18:37;15.50;99.90
27900;DHT22;15243;50.726;7.080;2022-09-13T01:26:56;15.60;99.90
27900;DHT22;15243;50.726;7.080;2022-09-13T01:49:29;15.70;99.90
27900;DHT22;15243;50.726;7.080;2022-09-13T01:57:15;15.70;99.90
27900;DHT22;15243;50.726;7.080;2022-09-13T01:59:50;15.70;99.90
27900;DHT22;15243;50.726;7.080;2022-09-13T02:02:33;15.70;99.90
27900;DHT22;15243;50.726;7.080;2022-09-13T02:05:13;15.70;99.90
27900;DHT22;15243;50.726;7.080;2022-09-13T02:07:45;15.70;99.90
27900;DHT22;15243;50.726;7.080;2022-09-13T02:10:23;15.70;99.90
27900;DHT22;15243;50.726;7.080;2022-09-13T02:12:52;15.70;99.90
27900;DHT22;15243;50.726;7.080;2022-09-13T02:15:52;15.70;99.90
27900;DHT22;15243;50.726;7.080;2022-09-13T02:18:30;15.80;99.90
27900;DHT22;15243;50.726;7.080;2022-09-13T02:21:10;15.80;99.90
27900;DHT22;15243;50.726;7.080;2022-09-13T02:23:54;15.80;99.90
27900;DHT22;15243;50.726;7.080;2022-09-13T02:26:24;15.60;99.90
27900;DHT22;15243;50.726;7.080;2022-09-13T02:28:54;15.60;99.90
27900;DHT22;15243;50.726;7.080;2022-09-13T02:34:20;15.60;99.90
27900;DHT22;15243;50.726;7.080;2022-09-13T02:36:49;15.60;99.90
27900;DHT22;15243;50.726;7.080;2022-09-13T02:39:22;15.60;99.90
27900;DHT22;15243;50.726;7.080;2022-09-13T02:41:51;15.60;99.90
27900;DHT22;15243;50.726;7.080;2022-09-13T02:44:42;15.50;99.90
27900;DHT22;15243;50.726;7.080;2022-09-13T02:50:06;15.60;99.90
27900;DHT22;15243;50.726;7.080;2022-09-13T03:00:42;15.50;99.90
27900;DHT22;15243;50.726;7.080;2022-09-13T03:03:11;15.50;99.90
27900;DHT22;15243;50.726;7.080;2022-09-13T03:05:40;15.60;99.90
27900;DHT22;15243;50.726;7.080;2022-09-13T03:08:09;15.70;99.90
27900;DHT22;15243;50.726;7.080;2022-09-13T03:13:39;15.80;99.90
27900;DHT22;15243;50.726;7.080;2022-09-13T03:16:35;15.80;99.90
27900;DHT22;15243;50.726;7.080;2022-09-13T03:24:27;15.90;99.90
27900;DHT22;15243;50.726;7.080;2022-09-13T03:27:09;15.90;99.90
27900;DHT22;15243;50.726;7.080;2022-09-13T03:29:47;15.90;99.90
27900;DHT22;15243;50.726;7.080;2022-09-13T03:40:41;15.90;99.90
27900;DHT22;15243;50.726;7.080;2022-09-13T03:43:10;15.80;99.90
27900;DHT22;15243;50.726;7.080;2022-09-13T03:45:48;15.80;99.90
27900;DHT22;15243;50.726;7.080;2022-09-13T03:48:16;15.80;99.90
27900;DHT22;15243;50.726;7.080;2022-09-13T03:50:45;15.90;99.90
27900;DHT22;15243;50.726;7.080;2022-09-13T03:53:22;15.80;99.90
27900;DHT22;15243;50.726;7.080;2022-09-13T03:55:49;15.80;99.90
27900;DHT22;15243;50.726;7.080;2022-09-13T03:58:18;15.80;99.90
27900;DHT22;15243;50.726;7.080;2022-09-13T04:00:46;15.90;99.90
27900;DHT22;15243;50.726;7.080;2022-09-13T04:03:13;15.90;99.90
27900;DHT22;15243;50.726;7.080;2022-09-13T04:05:40;15.90;99.90
27900;DHT22;15243;50.726;7.080;2022-09-13T04:08:07;15.90;99.90
27900;DHT22;15243;50.726;7.080;2022-09-13T04:10:35;15.90;99.90
27900;DHT22;15243;50.726;7.080;2022-09-13T04:13:03;15.90;99.90
27900;DHT22;15243;50.726;7.080;2022-09-13T04:15:30;16.00;99.90
27900;DHT22;15243;50.726;7.080;2022-09-13T04:17:58;16.00;99.90
27900;DHT22;15243;50.726;7.080;2022-09-13T04:20:25;16.00;99.90
27900;DHT22;15243;50.726;7.080;2022-09-13T04:22:53;16.00;99.90
27900;DHT22;15243;50.726;7.080;2022-09-13T04:25:21;16.00;99.90
27900;DHT22;15243;50.726;7.080;2022-09-13T04:27:53;16.00;99.90
27900;DHT22;15243;50.726;7.080;2022-09-13T04:30:21;16.10;99.90
27900;DHT22;15243;50.726;7.080;2022-09-13T04:32:49;16.20;99.90
27900;DHT22;15243;50.726;7.080;2022-09-13T04:35:16;16.20;99.90
27900;DHT22;15243;50.726;7.080;2022-09-13T04:37:45;16.20;99.90
27900;DHT22;15243;50.726;7.080;2022-09-13T04:40:12;16.10;99.90
27900;DHT22;15243;50.726;7.080;2022-09-13T04:42:40;16.10;99.90
27900;DHT22;15243;50.726;7.080;2022-09-13T04:45:09;16.10;99.90
27900;DHT22;15243;50.726;7.080;2022-09-13T04:47:36;16.00;99.90
27900;DHT22;15243;50.726;7.080;2022-09-13T04:50:04;16.00;99.90
27900;DHT22;15243;50.726;7.080;2022-09-13T04:52:36;16.10;99.90
27900;DHT22;15243;50.726;7.080;2022-09-13T04:55:03;16.10;99.90
27900;DHT22;15243;50.726;7.080;2022-09-13T04:57:30;16.00;99.90
27900;DHT22;15243;50.726;7.080;2022-09-13T04:59:57;16.00;99.90
27900;DHT22;15243;50.726;7.080;2022-09-13T05:02:24;16.10;99.90
27900;DHT22;15243;50.726;7.080;2022-09-13T05:04:51;16.00;99.90
27900;DHT22;15243;50.726;7.080;2022-09-13T05:07:18;16.00;99.90
27900;DHT22;15243;50.726;7.080;2022-09-13T05:09:45;15.90;99.90
27900;DHT22;15243;50.726;7.080;2022-09-13T05:12:12;15.90;99.90
27900;DHT22;15243;50.726;7.080;2022-09-13T05:14:38;16.00;99.90
27900;DHT22;15243;50.726;7.080;2022-09-13T05:17:06;16.00;99.90
27900;DHT22;15243;50.726;7.080;2022-09-13T05:19:33;16.00;99.90
27900;DHT22;15243;50.726;7.080;2022-09-13T05:22:01;16.00;99.90
27900;DHT22;15243;50.726;7.080;2022-09-13T05:24:28;16.10;99.90
27900;DHT22;15243;50.726;7.080;2022-09-13T05:26:55;16.10;99.90
27900;DHT22;15243;50.726;7.080;2022-09-13T05:29:22;16.00;99.90
27900;DHT22;15243;50.726;7.080;2022-09-13T05:31:49;16.00;99.90
27900;DHT22;15243;50.726;7.080;2022-09-13T05:34:16;16.10;99.90
27900;DHT22;15243;50.726;7.080;2022-09-13T05:36:43;16.10;99.90
27900;DHT22;15243;50.726;7.080;2022-09-13T05:39:15;16.10;99.90
27900;DHT22;15243;50.726;7.080;2022-09-13T05:42:03;16.20;99.90
27900;DHT22;15243;50.726;7.080;2022-09-13T05:44:30;16.20;99.90
27900;DHT22;15243;50.726;7.080;2022-09-13T05:46:57;16.30;99.90
27900;DHT22;15243;50.726;7.080;2022-09-13T05:49:24;16.30;99.90
27900;DHT22;15243;50.726;7.080;2022-09-13T05:51:51;16.30;99.90
27900;DHT22;15243;50.726;7.080;2022-09-13T05:54:18;16.30;99.90
27900;DHT22;15243;50.726;7.080;2022-09-13T05:56:45;16.30;99.90
27900;DHT22;15243;50.726;7.080;2022-09-13T05:59:12;16.30;99.90
27900;DHT22;15243;50.726;7.080;2022-09-13T06:01:42;16.30;99.90
27900;DHT22;15243;50.726;7.080;2022-09-13T06:04:09;16.30;99.90
27900;DHT22;15243;50.726;7.080;2022-09-13T06:06:38;16.40;99.90
27900;DHT22;15243;50.726;7.080;2022-09-13T06:09:05;16.30;99.90
27900;DHT22;15243;50.726;7.080;2022-09-13T06:11:34;16.40;99.90
27900;DHT22;15243;50.726;7.080;2022-09-13T06:14:01;16.40;99.90
27900;DHT22;15243;50.726;7.080;2022-09-13T06:16:28;16.40;99.90
27900;DHT22;15243;50.726;7.080;2022-09-13T06:18:56;16.50;99.90
27900;DHT22;15243;50.726;7.080;2022-09-13T06:21:23;16.70;99.90
27900;DHT22;15243;50.726;7.080;2022-09-13T06:23:55;16.90;99.90
27900;DHT22;15243;50.726;7.080;2022-09-13T06:26:23;16.90;99.90
27900;DHT22;15243;50.726;7.080;2022-09-13T06:28:53;16.80;99.90
27900;DHT22;15243;50.726;7.080;2022-09-13T06:31:22;16.90;99.90
27900;DHT22;15243;50.726;7.080;2022-09-13T06:33:55;16.90;99.90
27900;DHT22;15243;50.726;7.080;2022-09-13T06:36:23;17.00;99.90
27900;DHT22;15243;50.726;7.080;2022-09-13T06:38:50;17.10;99.90
27900;DHT22;15243;50.726;7.080;2022-09-13T06:41:19;17.10;99.90
27900;DHT22;15243;50.726;7.080;2022-09-13T06:43:52;17.10;99.90
27900;DHT22;15243;50.726;7.080;2022-09-13T06:46:20;17.20;99.90
27900;DHT22;15243;50.726;7.080;2022-09-13T06:48:51;17.10;99.90
27900;DHT22;15243;50.726;7.080;2022-09-13T06:51:21;17.20;99.90
27900;DHT22;15243;50.726;7.080;2022-09-13T06:53:49;17.20;99.90
27900;DHT22;15243;50.726;7.080;2022-09-13T06:56:30;17.30;99.90
27900;DHT22;15243;50.726;7.080;2022-09-13T06:59:02;17.30;99.90
27900;DHT22;15243;50.726;7.080;2022-09-13T07:04:03;17.50;99.90
27900;DHT22;15243;50.726;7.080;2022-09-13T07:06:36;17.70;99.90
27900;DHT22;15243;50.726;7.080;2022-09-13T07:09:05;17.80;99.90
27900;DHT22;15243;50.726;7.080;2022-09-13T07:11:34;17.80;99.90
27900;DHT22;15243;50.726;7.080;2022-09-13T07:14:02;17.90;99.90
27900;DHT22;15243;50.726;7.080;2022-09-13T07:16:30;17.90;99.90
27900;DHT22;15243;50.726;7.080;2022-09-13T07:19:03;17.90;99.90
27900;DHT22;15243;50.726;7.080;2022-09-13T07:21:33;17.90;99.90
27900;DHT22;15243;50.726;7.080;2022-09-13T07:24:00;17.80;99.90
27900;DHT22;15243;50.726;7.080;2022-09-13T07:26:27;17.90;99.90
27900;DHT22;15243;50.726;7.080;2022-09-13T07:28:57;17.90;99.90
27900;DHT22;15243;50.726;7.080;2022-09-13T07:31:33;18.00;99.90
27900;DHT22;15243;50.726;7.080;2022-09-13T07:34:02;18.10;99.90
27900;DHT22;15243;50.726;7.080;2022-09-13T07:36:31;18.20;99.90
27900;DHT22;15243;50.726;7.080;2022-09-13T07:38:59;18.30;99.90
27900;DHT22;15243;50.726;7.080;2022-09-13T07:41:28;18.40;99.90
27900;DHT22;15243;50.726;7.080;2022-09-13T07:43:58;18.60;99.90
27900;DHT22;15243;50.726;7.080;2022-09-13T07:46:33;18.70;99.90
27900;DHT22;15243;50.726;7.080;2022-09-13T07:49:03;18.70;99.90
27900;DHT22;15243;50.726;7.080;2022-09-13T07:51:36;18.80;99.90
27900;DHT22;15243;50.726;7.080;2022-09-13T07:54:13;19.00;99.90
27900;DHT22;15243;50.726;7.080;2022-09-13T07:56:42;19.10;99.90
27900;DHT22;15243;50.726;7.080;2022-09-13T07:59:16;19.10;99.90
27900;DHT22;15243;50.726;7.080;2022-09-13T08:01:59;19.20;99.90
27900;DHT22;15243;50.726;7.080;2022-09-13T08:04:28;19.30;99.90
27900;DHT22;15243;50.726;7.080;2022-09-13T08:07:01;19.40;99.90
27900;DHT22;15243;50.726;7.080;2022-09-13T08:09:28;19.40;99.90
27900;DHT22;15243;50.726;7.080;2022-09-13T08:11:55;19.50;99.90
27900;DHT22;15243;50.726;7.080;2022-09-13T08:14:23;19.70;99.90
27900;DHT22;15243;50.726;7.080;2022-09-13T08:16:56;20.00;99.90
27900;DHT22;15243;50.726;7.080;2022-09-13T08:19:23;19.90;99.90
27900;DHT22;15243;50.726;7.080;2022-09-13T08:21:51;19.90;99.90
27900;DHT22;15243;50.726;7.080;2022-09-13T08:24:20;20.00;99.90
27900;DHT22;15243;50.726;7.080;2022-09-13T08:26:49;20.00;99.90
27900;DHT22;15243;50.726;7.080;2022-09-13T08:29:18;20.10;99.90
27900;DHT22;15243;50.726;7.080;2022-09-13T08:31:45;20.30;99.90
27900;DHT22;15243;50.726;7.080;2022-09-13T08:34:15;20.40;99.90
27900;DHT22;15243;50.726;7.080;2022-09-13T08:36:44;20.60;99.90
27900;DHT22;15243;50.726;7.080;2022-09-13T08:39:13;20.60;99.90
27900;DHT22;15243;50.726;7.080;2022-09-13T08:44:29;20.70;99.90
27900;DHT22;15243;50.726;7.080;2022-09-13T08:49:44;21.10;99.90
27900;DHT22;15243;50.726;7.080;2022-09-13T08:54:51;21.20;99.90
27900;DHT22;15243;50.726;7.080;2022-09-13T09:00:20;21.10;99.90
27900;DHT22;15243;50.726;7.080;2022-09-13T09:03:36;21.10;99.90
27900;DHT22;15243;50.726;7.080;2022-09-13T09:08:45;21.50;99.90
27900;DHT22;15243;50.726;7.080;2022-09-13T09:14:14;21.80;99.90
27900;DHT22;15243;50.726;7.080;2022-09-13T09:19:53;22.10;99.90
27900;DHT22;15243;50.726;7.080;2022-09-13T09:22:37;22.00;99.90
27900;DHT22;15243;50.726;7.080;2022-09-13T09:25:11;21.90;99.90
27900;DHT22;15243;50.726;7.080;2022-09-13T09:27:42;22.10;99.90
27900;DHT22;15243;50.726;7.080;2022-09-13T09:30:14;22.40;99.90
27900;DHT22;15243;50.726;7.080;2022-09-13T09:33:05;22.80;99.90
27900;DHT22;15243;50.726;7.080;2022-09-13T09:40:53;23.40;99.90
27900;DHT22;15243;50.726;7.080;2022-09-13T09:43:29;23.30;99.90
27900;DHT22;15243;50.726;7.080;2022-09-13T09:46:03;23.40;99.90
27900;DHT22;15243;50.726;7.080;2022-09-13T09:48:40;23.50;99.90
27900;DHT22;15243;50.726;7.080;2022-09-13T09:51:11;23.20;99.90
27900;DHT22;15243;50.726;7.080;2022-09-13T09:53:43;23.20;99.90
27900;DHT22;15243;50.726;7.080;2022-09-13T09:56:24;23.50;99.90
27900;DHT22;15243;50.726;7.080;2022-09-13T09:58:52;23.40;99.90
27900;DHT22;15243;50.726;7.080;2022-09-13T10:01:36;23.60;99.90
27900;DHT22;15243;50.726;7.080;2022-09-13T10:04:19;23.60;99.90
27900;DHT22;15243;50.726;7.080;2022-09-13T10:06:48;23.60;99.90
27900;DHT22;15243;50.726;7.080;2022-09-13T10:09:19;23.60;99.90
27900;DHT22;15243;50.726;7.080;2022-09-13T10:17:25;23.70;99.90
27900;DHT22;15243;50.726;7.080;2022-09-13T10:19:53;23.90;99.90
27900;DHT22;15243;50.726;7.080;2022-09-13T10:22:21;24.00;99.90
27900;DHT22;15243;50.726;7.080;2022-09-13T10:24:48;24.00;99.90
27900;DHT22;15243;50.726;7.080;2022-09-13T10:27:35;24.10;99.90
27900;DHT22;15243;50.726;7.080;2022-09-13T10:30:04;24.20;99.90
27900;DHT22;15243;50.726;7.080;2022-09-13T10:32:32;24.40;99.90
27900;DHT22;15243;50.726;7.080;2022-09-13T10:35:08;24.40;99.90
27900;DHT22;15243;50.726;7.080;2022-09-13T10:37:42;24.40;99.90
27900;DHT22;15243;50.726;7.080;2022-09-13T10:40:21;24.40;99.90
27900;DHT22;15243;50.726;7.080;2022-09-13T10:42:51;24.60;99.90
27900;DHT22;15243;50.726;7.080;2022-09-13T10:45:23;24.50;99.90
27900;DHT22;15243;50.726;7.080;2022-09-13T10:48:14;24.40;99.90
27900;DHT22;15243;50.726;7.080;2022-09-13T10:50:39;24.40;99.90
27900;DHT22;15243;50.726;7.080;2022-09-13T10:53:39;24.30;99.90
27900;DHT22;15243;50.726;7.080;2022-09-13T10:56:22;24.50;99.90
27900;DHT22;15243;50.726;7.080;2022-09-13T10:58:52;24.70;99.90
27900;DHT22;15243;50.726;7.080;2022-09-13T11:04:35;24.70;99.90
27900;DHT22;15243;50.726;7.080;2022-09-13T11:10:31;25.10;99.90
27900;DHT22;15243;50.726;7.080;2022-09-13T11:19:13;24.80;99.90
27900;DHT22;15243;50.726;7.080;2022-09-13T11:22:00;25.20;99.90
27900;DHT22;15243;50.726;7.080;2022-09-13T11:24:40;25.70;99.90
27900;DHT22;15243;50.726;7.080;2022-09-13T11:27:17;26.30;99.90
27900;DHT22;15243;50.726;7.080;2022-09-13T11:49:49;25.10;99.90
27900;DHT22;15243;50.726;7.080;2022-09-13T11:52:41;25.40;99.90
27900;DHT22;15243;50.726;7.080;2022-09-13T11:55:25;25.90;99.90
27900;DHT22;15243;50.726;7.080;2022-09-13T11:58:08;26.00;99.90
27900;DHT22;15243;50.726;7.080;2022-09-13T12:00:44;26.40;99.90
27900;DHT22;15243;50.726;7.080;2022-09-13T12:09:01;25.90;99.90
27900;DHT22;15243;50.726;7.080;2022-09-13T12:11:38;26.50;99.90
27900;DHT22;15243;50.726;7.080;2022-09-13T12:14:16;27.00;99.90
27900;DHT22;15243;50.726;7.080;2022-09-13T12:16:48;27.20;99.90
27900;DHT22;15243;50.726;7.080;2022-09-13T12:19:20;27.50;99.90
27900;DHT22;15243;50.726;7.080;2022-09-13T12:21:48;27.60;99.90
27900;DHT22;15243;50.726;7.080;2022-09-13T12:24:40;27.60;99.90
27900;DHT22;15243;50.726;7.080;2022-09-13T12:27:38;27.70;99.90
27900;DHT22;15243;50.726;7.080;2022-09-13T12:30:18;27.70;99.90
27900;DHT22;15243;50.726;7.080;2022-09-13T12:32:46;27.60;99.90
27900;DHT22;15243;50.726;7.080;2022-09-13T12:35:33;27.30;99.90
27900;DHT22;15243;50.726;7.080;2022-09-13T12:38:24;27.30;99.90
27900;DHT22;15243;50.726;7.080;2022-09-13T12:41:25;27.10;99.90
27900;DHT22;15243;50.726;7.080;2022-09-13T12:53:12;27.00;99.90
27900;DHT22;15243;50.726;7.080;2022-09-13T12:59:13;27.30;99.90
27900;DHT22;15243;50.726;7.080;2022-09-13T13:01:48;28.10;99.90
27900;DHT22;15243;50.726;7.080;2022-09-13T13:04:29;28.40;99.90
27900;DHT22;15243;50.726;7.080;2022-09-13T13:07:00;28.60;99.90
27900;DHT22;15243;50.726;7.080;2022-09-13T13:09:44;28.80;99.90
27900;DHT22;15243;50.726;7.080;2022-09-13T13:17:50;27.70;99.90
27900;DHT22;15243;50.726;7.080;2022-09-13T13:20:47;27.50;99.90
27900;DHT22;15243;50.726;7.080;2022-09-13T13:23:34;27.10;99.90
27900;DHT22;15243;50.726;7.080;2022-09-13T13:31:36;27.50;99.90
27900;DHT22;15243;50.726;7.080;2022-09-13T13:39:32;26.90;99.90
27900;DHT22;15243;50.726;7.080;2022-09-13T13:42:23;27.10;99.90
27900;DHT22;15243;50.726;7.080;2022-09-13T13:57:59;28.40;99.90
27900;DHT22;15243;50.726;7.080;2022-09-13T14:00:29;28.30;99.90
27900;DHT22;15243;50.726;7.080;2022-09-13T14:03:22;28.50;99.90
27900;DHT22;15243;50.726;7.080;2022-09-13T14:05:59;29.00;99.90
27900;DHT22;15243;50.726;7.080;2022-09-13T14:14:39;28.30;99.90
27900;DHT22;15243;50.726;7.080;2022-09-13T14:19:51;27.20;99.90
27900;DHT22;15243;50.726;7.080;2022-09-13T14:22:24;26.80;99.90
27900;DHT22;15243;50.726;7.080;2022-09-13T14:24:56;26.60;99.90
27900;DHT22;15243;50.726;7.080;2022-09-13T14:27:29;26.70;99.90
27900;DHT22;15243;50.726;7.080;2022-09-13T14:30:02;26.80;99.90
27900;DHT22;15243;50.726;7.080;2022-09-13T14:32:39;26.50;99.90
27900;DHT22;15243;50.726;7.080;2022-09-13T14:35:30;26.70;99.90
27900;DHT22;15243;50.726;7.080;2022-09-13T14:38:17;26.50;99.90
27900;DHT22;15243;50.726;7.080;2022-09-13T14:40:49;26.30;99.90
27900;DHT22;15243;50.726;7.080;2022-09-13T14:43:22;26.50;99.90
27900;DHT22;15243;50.726;7.080;2022-09-13T14:45:58;26.30;99.90
27900;DHT22;15243;50.726;7.080;2022-09-13T14:48:47;26.00;99.90
27900;DHT22;15243;50.726;7.080;2022-09-13T14:51:24;26.00;99.90
27900;DHT22;15243;50.726;7.080;2022-09-13T14:54:02;26.00;99.90
27900;DHT22;15243;50.726;7.080;2022-09-13T14:56:36;26.00;99.90
27900;DHT22;15243;50.726;7.080;2022-09-13T14:59:31;25.60;99.90
27900;DHT22;15243;50.726;7.080;2022-09-13T15:02:15;25.40;99.90
27900;DHT22;15243;50.726;7.080;2022-09-13T15:04:54;25.30;99.90
27900;DHT22;15243;50.726;7.080;2022-09-13T15:07:28;25.30;99.90
27900;DHT22;15243;50.726;7.080;2022-09-13T15:10:04;25.20;99.90
27900;DHT22;15243;50.726;7.080;2022-09-13T15:12:31;25.20;99.90
27900;DHT22;15243;50.726;7.080;2022-09-13T15:18:06;25.20;99.90
27900;DHT22;15243;50.726;7.080;2022-09-13T15:21:12;25.20;99.90
27900;DHT22;15243;50.726;7.080;2022-09-13T15:23:47;25.10;99.90
27900;DHT22;15243;50.726;7.080;2022-09-13T15:26:23;25.00;99.90
27900;DHT22;15243;50.726;7.080;2022-09-13T15:28:58;25.00;99.90
27900;DHT22;15243;50.726;7.080;2022-09-13T15:31:32;24.90;99.90
27900;DHT22;15243;50.726;7.080;2022-09-13T15:37:11;24.80;99.90
27900;DHT22;15243;50.726;7.080;2022-09-13T15:42:10;24.60;99.90
27900;DHT22;15243;50.726;7.080;2022-09-13T15:44:37;24.50;99.90
27900;DHT22;15243;50.726;7.080;2022-09-13T15:47:12;24.60;99.90
27900;DHT22;15243;50.726;7.080;2022-09-13T15:49:47;24.30;99.90
27900;DHT22;15243;50.726;7.080;2022-09-13T15:52:16;24.20;99.90
27900;DHT22;15243;50.726;7.080;2022-09-13T15:54:47;24.30;99.90
27900;DHT22;15243;50.726;7.080;2022-09-13T15:57:25;24.10;99.90
27900;DHT22;15243;50.726;7.080;2022-09-13T15:59:53;24.00;99.90
27900;DHT22;15243;50.726;7.080;2022-09-13T16:04:51;23.90;99.90
27900;DHT22;15243;50.726;7.080;2022-09-13T16:07:20;23.80;99.90
27900;DHT22;15243;50.726;7.080;2022-09-13T16:09:47;23.80;99.90
27900;DHT22;15243;50.726;7.080;2022-09-13T16:12:15;23.60;99.90
27900;DHT22;15243;50.726;7.080;2022-09-13T16:14:44;23.60;99.90
27900;DHT22;15243;50.726;7.080;2022-09-13T16:17:23;23.50;99.90
27900;DHT22;15243;50.726;7.080;2022-09-13T16:19:51;23.40;99.90
27900;DHT22;15243;50.726;7.080;2022-09-13T16:22:18;23.40;99.90
27900;DHT22;15243;50.726;7.080;2022-09-13T16:24:45;23.20;99.90
27900;DHT22;15243;50.726;7.080;2022-09-13T16:27:14;23.00;99.90
27900;DHT22;15243;50.726;7.080;2022-09-13T16:29:41;23.00;99.90
27900;DHT22;15243;50.726;7.080;2022-09-13T16:32:08;22.70;99.90
27900;DHT22;15243;50.726;7.080;2022-09-13T16:34:35;22.50;99.90
27900;DHT22;15243;50.726;7.080;2022-09-13T16:37:02;22.30;99.90
27900;DHT22;15243;50.726;7.080;2022-09-13T16:39:29;22.20;99.90
27900;DHT22;15243;50.726;7.080;2022-09-13T16:41:56;22.10;99.90
27900;DHT22;15243;50.726;7.080;2022-09-13T16:44:23;22.00;99.90
27900;DHT22;15243;50.726;7.080;2022-09-13T16:46:50;21.80;99.90
27900;DHT22;15243;50.726;7.080;2022-09-13T16:49:17;21.80;99.90
27900;DHT22;15243;50.726;7.080;2022-09-13T16:51:44;21.60;99.90
27900;DHT22;15243;50.726;7.080;2022-09-13T16:54:11;21.60;99.90
27900;DHT22;15243;50.726;7.080;2022-09-13T16:56:38;21.40;99.90
27900;DHT22;15243;50.726;7.080;2022-09-13T16:59:05;21.30;99.90
27900;DHT22;15243;50.726;7.080;2022-09-13T17:01:31;21.40;99.90
27900;DHT22;15243;50.726;7.080;2022-09-13T17:03:59;21.30;99.90
27900;DHT22;15243;50.726;7.080;2022-09-13T17:06:26;21.20;99.90
27900;DHT22;15243;50.726;7.080;2022-09-13T17:08:58;21.20;99.90
27900;DHT22;15243;50.726;7.080;2022-09-13T17:11:32;21.10;99.90
27900;DHT22;15243;50.726;7.080;2022-09-13T17:14:00;21.10;99.90
27900;DHT22;15243;50.726;7.080;2022-09-13T17:16:33;21.00;99.90
27900;DHT22;15243;50.726;7.080;2022-09-13T17:19:03;21.00;99.90
27900;DHT22;15243;50.726;7.080;2022-09-13T17:21:31;21.00;99.90
27900;DHT22;15243;50.726;7.080;2022-09-13T17:23:59;20.90;99.90
27900;DHT22;15243;50.726;7.080;2022-09-13T17:26:27;20.90;99.90
27900;DHT22;15243;50.726;7.080;2022-09-13T17:28:54;20.80;99.90
27900;DHT22;15243;50.726;7.080;2022-09-13T17:31:20;20.80;99.90
27900;DHT22;15243;50.726;7.080;2022-09-13T17:33:48;20.80;99.90
27900;DHT22;15243;50.726;7.080;2022-09-13T17:36:15;20.80;99.90
27900;DHT22;15243;50.726;7.080;2022-09-13T17:38:43;20.70;99.90
27900;DHT22;15243;50.726;7.080;2022-09-13T17:41:15;20.70;99.90
27900;DHT22;15243;50.726;7.080;2022-09-13T17:43:43;20.70;99.90
27900;DHT22;15243;50.726;7.080;2022-09-13T17:46:16;20.70;99.90
27900;DHT22;15243;50.726;7.080;2022-09-13T17:48:43;20.70;99.90
27900;DHT22;15243;50.726;7.080;2022-09-13T17:51:13;20.60;99.90
27900;DHT22;15243;50.726;7.080;2022-09-13T17:53:46;20.70;99.90
27900;DHT22;15243;50.726;7.080;2022-09-13T17:56:18;20.60;99.90
27900;DHT22;15243;50.726;7.080;2022-09-13T17:58:45;20.60;99.90
27900;DHT22;15243;50.726;7.080;2022-09-13T18:01:13;20.50;99.90
27900;DHT22;15243;50.726;7.080;2022-09-13T18:03:40;20.60;99.90
27900;DHT22;15243;50.726;7.080;2022-09-13T18:06:08;20.50;99.90
27900;DHT22;15243;50.726;7.080;2022-09-13T18:08:37;20.50;99.90
27900;DHT22;15243;50.726;7.080;2022-09-13T18:11:09;20.50;99.90
27900;DHT22;15243;50.726;7.080;2022-09-13T18:13:41;20.40;99.90
27900;DHT22;15243;50.726;7.080;2022-09-13T18:16:11;20.20;99.90
27900;DHT22;15243;50.726;7.080;2022-09-13T18:18:45;20.30;99.90
27900;DHT22;15243;50.726;7.080;2022-09-13T18:21:13;20.30;99.90
27900;DHT22;15243;50.726;7.080;2022-09-13T18:23:40;20.30;99.90
27900;DHT22;15243;50.726;7.080;2022-09-13T18:26:10;20.30;99.90
27900;DHT22;15243;50.726;7.080;2022-09-13T18:28:37;20.30;99.90
27900;DHT22;15243;50.726;7.080;2022-09-13T18:31:06;20.30;99.90
27900;DHT22;15243;50.726;7.080;2022-09-13T18:33:35;20.20;99.90
27900;DHT22;15243;50.726;7.080;2022-09-13T18:36:07;20.20;99.90
27900;DHT22;15243;50.726;7.080;2022-09-13T18:38:37;20.10;99.90
27900;DHT22;15243;50.726;7.080;2022-09-13T18:41:08;20.10;99.90
27900;DHT22;15243;50.726;7.080;2022-09-13T18:43:36;20.00;99.90
27900;DHT22;15243;50.726;7.080;2022-09-13T18:46:12;20.00;99.90
27900;DHT22;15243;50.726;7.080;2022-09-13T18:48:41;20.00;99.90
27900;DHT22;15243;50.726;7.080;2022-09-13T18:51:10;20.00;99.90
27900;DHT22;15243;50.726;7.080;2022-09-13T18:53:38;19.90;99.90
27900;DHT22;15243;50.726;7.080;2022-09-13T18:56:11;19.90;99.90
27900;DHT22;15243;50.726;7.080;2022-09-13T18:58:38;19.80;99.90
27900;DHT22;15243;50.726;7.080;2022-09-13T19:01:08;19.60;99.90
27900;DHT22;15243;50.726;7.080;2022-09-13T19:03:35;19.50;99.90
27900;DHT22;15243;50.726;7.080;2022-09-13T19:06:12;19.60;99.90
27900;DHT22;15243;50.726;7.080;2022-09-13T19:08:42;19.60;99.90
27900;DHT22;15243;50.726;7.080;2022-09-13T19:11:10;19.60;99.90
27900;DHT22;15243;50.726;7.080;2022-09-13T19:13:57;19.50;99.90
27900;DHT22;15243;50.726;7.080;2022-09-13T19:16:24;19.50;99.90